Time;durP1;ratioP1;P1;durP2;ratioP2;P2;SDS_P1;SDS_P2;PMS_P1;PMS_P2;Temp;Humidity;BMP_temperature;BMP_pressure;BME280_temperature;BME280_humidity;BME280_pressure;Samples;Min_cycle;Max_cycle;Signal;HPM_P1;HPM_P2
2021/03/08 00:00:57;;;;;;;;;;;22.60;34.50;;;;;;1622303;72;1083;-56
2021/03/08 00:02:59;;;;;;;;;;;22.60;34.50;;;;;;1617794;73;755;-59
2021/03/08 00:05:01;;;;;;;;;;;22.70;34.50;;;;;;1620808;73;679;-57
2021/03/08 00:07:03;;;;;;;;;;;22.70;34.40;;;;;;1614806;73;785;-59
2021/03/08 00:09:05;;;;;;;;;;;22.90;34.40;;;;;;1617294;73;1120;-60
2021/03/08 00:11:07;;;;;;;;;;;22.90;34.20;;;;;;1618404;73;689;-59
2021/03/08 00:13:08;;;;;;;;;;;22.90;34.10;;;;;;1621586;73;771;-54
2021/03/08 00:15:11;;;;;;;;;;;22.90;34.20;;;;;;1623131;73;676;-59
2021/03/08 00:17:13;;;;;;;;;;;22.80;34.40;;;;;;1625332;73;722;-59
2021/03/08 00:19:14;;;;;;;;;;;22.80;34.70;;;;;;1616826;72;1955;-59
2021/03/08 00:21:16;;;;;;;;;;;22.80;34.70;;;;;;1617638;73;737;-58
2021/03/08 00:23:18;;;;;;;;;;;22.80;34.90;;;;;;1614797;73;787;-55
2021/03/08 00:25:24;;;;;;;;;;;22.70;35.00;;;;;;1619071;73;791;-59
2021/03/08 00:27:26;;;;;;;;;;;22.70;35.20;;;;;;1609252;73;724;-61
2021/03/08 00:29:27;;;;;;;;;;;22.60;35.10;;;;;;1619160;72;1113;-58
2021/03/08 00:31:29;;;;;;;;;;;22.60;35.20;;;;;;1615232;73;750;-58
2021/03/08 00:33:31;;;;;;;;;;;22.70;35.20;;;;;;1617430;73;712;-58
2021/03/08 00:35:33;;;;;;;;;;;22.70;35.30;;;;;;1614031;73;728;-57
2021/03/08 00:37:35;;;;;;;;;;;22.60;35.10;;;;;;1620433;73;722;-58
2021/03/08 00:39:37;;;;;;;;;;;22.80;34.90;;;;;;1612696;72;1935;-59
2021/03/08 00:41:39;;;;;;;;;;;22.90;34.80;;;;;;1614072;73;796;-60
2021/03/08 00:43:41;;;;;;;;;;;22.90;34.70;;;;;;1614211;73;739;-59
2021/03/08 00:45:43;;;;;;;;;;;22.90;34.60;;;;;;1620918;73;774;-58
2021/03/08 00:47:45;;;;;;;;;;;23.00;34.50;;;;;;1618226;73;701;-58
2021/03/08 00:49:47;;;;;;;;;;;23.00;34.40;;;;;;1617942;72;1157;-58
2021/03/08 00:51:49;;;;;;;;;;;23.00;34.40;;;;;;1616913;73;842;-58
2021/03/08 00:53:50;;;;;;;;;;;23.00;34.60;;;;;;1616759;72;808;-57
2021/03/08 00:55:52;;;;;;;;;;;22.90;34.80;;;;;;1619908;73;771;-57
2021/03/08 00:57:54;;;;;;;;;;;23.00;34.90;;;;;;1623757;73;784;-57
2021/03/08 00:59:56;;;;;;;;;;;22.80;35.10;;;;;;1623847;72;1928;-59
2021/03/08 01:01:58;;;;;;;;;;;22.70;35.20;;;;;;1623341;72;749;-59
2021/03/08 01:04:00;;;;;;;;;;;22.70;35.10;;;;;;1622113;73;763;-59
2021/03/08 01:06:02;;;;;;;;;;;22.80;35.20;;;;;;1620892;73;718;-60
2021/03/08 01:08:04;;;;;;;;;;;22.70;35.20;;;;;;1623555;73;660;-60
2021/03/08 01:10:10;;;;;;;;;;;22.70;35.20;;;;;;1614778;73;1163;-57
2021/03/08 01:12:13;;;;;;;;;;;22.70;35.10;;;;;;1619954;73;1684;-57
2021/03/08 01:14:15;;;;;;;;;;;22.70;35.20;;;;;;1619529;73;741;-56
2021/03/08 01:16:16;;;;;;;;;;;22.70;35.30;;;;;;1618909;73;708;-59
2021/03/08 01:18:19;;;;;;;;;;;22.70;35.30;;;;;;1625233;72;730;-58
2021/03/08 01:20:21;;;;;;;;;;;22.70;35.20;;;;;;1621623;73;1928;-59
2021/03/08 01:22:23;;;;;;;;;;;22.70;35.20;;;;;;1618950;73;756;-59
2021/03/08 01:24:24;;;;;;;;;;;22.80;35.00;;;;;;1619606;73;747;-58
2021/03/08 01:26:26;;;;;;;;;;;22.80;35.00;;;;;;1623623;73;776;-59
2021/03/08 01:28:28;;;;;;;;;;;22.90;35.00;;;;;;1618453;73;780;-57
2021/03/08 01:30:34;;;;;;;;;;;22.90;35.00;;;;;;1623236;72;1145;-59
2021/03/08 01:32:36;;;;;;;;;;;22.80;34.90;;;;;;1621910;73;696;-58
2021/03/08 01:34:37;;;;;;;;;;;22.90;35.20;;;;;;1623237;73;714;-59
2021/03/08 01:36:39;;;;;;;;;;;22.80;35.00;;;;;;1620131;73;794;-60
2021/03/08 01:38:41;;;;;;;;;;;22.90;35.20;;;;;;1625395;73;715;-60
2021/03/08 01:40:43;;;;;;;;;;;22.80;35.10;;;;;;1620200;73;1125;-57
2021/03/08 01:42:45;;;;;;;;;;;22.80;35.00;;;;;;1622302;73;810;-60
2021/03/08 01:44:48;;;;;;;;;;;22.80;35.20;;;;;;1623525;73;780;-57
2021/03/08 01:46:49;;;;;;;;;;;22.80;35.30;;;;;;1624278;73;791;-57
2021/03/08 01:48:52;;;;;;;;;;;22.70;35.50;;;;;;1622008;73;782;-56
2021/03/08 01:50:54;;;;;;;;;;;22.60;35.50;;;;;;1623272;73;1109;-59
2021/03/08 01:52:56;;;;;;;;;;;22.60;35.50;;;;;;1622313;73;714;-56
2021/03/08 01:54:58;;;;;;;;;;;22.60;35.40;;;;;;1625215;72;696;-60
2021/03/08 01:57:00;;;;;;;;;;;22.70;35.40;;;;;;1625712;73;696;-57
2021/03/08 01:59:05;;;;;;;;;;;22.70;35.20;;;;;;1620040;73;1932;-55
2021/03/08 02:01:07;;;;;;;;;;;22.80;35.10;;;;;;1615969;73;708;-58
2021/03/08 02:03:09;;;;;;;;;;;22.80;34.90;;;;;;1614659;73;903;-57
2021/03/08 02:05:12;;;;;;;;;;;22.90;34.90;;;;;;1617049;73;749;-57
2021/03/08 02:07:14;;;;;;;;;;;22.90;35.00;;;;;;1621348;73;699;-59
2021/03/08 02:09:16;;;;;;;;;;;22.90;34.90;;;;;;1617963;73;1186;-59
2021/03/08 02:11:18;;;;;;;;;;;22.90;34.70;;;;;;1622459;73;750;-55
2021/03/08 02:13:34;;;;;;;;;;;23.00;34.70;;;;;;1620915;73;662;-57
2021/03/08 02:15:54;;;;;;;;;;;22.90;34.80;;;;;;1610275;73;733;-59
2021/03/08 02:18:03;;;;;;;;;;;23.00;34.70;;;;;;1620043;72;669;-58
2021/03/08 02:20:13;;;;;;;;;;;22.90;34.70;;;;;;1604948;73;1934;-60
2021/03/08 02:22:33;;;;;;;;;;;22.90;34.90;;;;;;1608854;73;710;-60
2021/03/08 02:24:53;;;;;;;;;;;22.80;35.10;;;;;;1620216;73;790;-60
2021/03/08 02:26:58;;;;;;;;;;;22.70;35.20;;;;;;1618226;73;763;-59
2021/03/08 02:29:11;;;;;;;;;;;22.60;35.50;;;;;;1612492;73;928;-57
2021/03/08 02:31:14;;;;;;;;;;;22.60;35.50;;;;;;1618773;73;1711;-59
2021/03/08 02:33:21;;;;;;;;;;;22.60;35.50;;;;;;1617004;73;994;-55
2021/03/08 02:35:24;;;;;;;;;;;22.70;35.50;;;;;;1607519;73;776;-57
2021/03/08 02:37:27;;;;;;;;;;;22.60;35.50;;;;;;1612801;73;1412;-60
2021/03/08 02:39:29;;;;;;;;;;;22.50;35.70;;;;;;1613769;72;1937;-56
2021/03/08 02:41:31;;;;;;;;;;;22.60;35.70;;;;;;1612668;73;800;-59
2021/03/08 02:43:35;;;;;;;;;;;22.50;35.70;;;;;;1603616;73;605;-59
2021/03/08 02:45:36;;;;;;;;;;;22.60;35.70;;;;;;1611772;73;812;-59
2021/03/08 02:47:40;;;;;;;;;;;22.50;35.60;;;;;;1624074;73;701;-59
2021/03/08 02:49:42;;;;;;;;;;;22.60;35.60;;;;;;1619450;73;1152;-56
2021/03/08 02:51:44;;;;;;;;;;;22.50;35.70;;;;;;1603813;72;729;-57
2021/03/08 02:53:46;;;;;;;;;;;22.50;36.00;;;;;;1615575;72;764;-59
2021/03/08 02:55:56;;;;;;;;;;;22.50;35.50;;;;;;1616057;73;760;-59
2021/03/08 02:57:58;;;;;;;;;;;22.60;35.50;;;;;;1614197;73;1851;-58
2021/03/08 03:00:00;;;;;;;;;;;22.60;35.40;;;;;;1604516;73;1957;-59
2021/03/08 03:02:02;;;;;;;;;;;22.60;35.20;;;;;;1614982;73;785;-57
2021/03/08 03:04:03;;;;;;;;;;;22.80;35.00;;;;;;1615330;73;858;-59
2021/03/08 03:06:06;;;;;;;;;;;22.80;34.80;;;;;;1619227;73;746;-59
2021/03/08 03:08:10;;;;;;;;;;;22.90;34.70;;;;;;1607337;73;755;-59
2021/03/08 03:10:12;;;;;;;;;;;22.90;34.60;;;;;;1603651;73;1057;-59
2021/03/08 03:12:14;;;;;;;;;;;22.90;34.50;;;;;;1608948;73;758;-59
2021/03/08 03:14:16;;;;;;;;;;;22.90;34.50;;;;;;1604787;73;721;-59
2021/03/08 03:16:18;;;;;;;;;;;22.90;34.50;;;;;;1622145;73;706;-56
2021/03/08 03:18:20;;;;;;;;;;;22.90;34.50;;;;;;1611494;72;645;-59
2021/03/08 03:20:21;;;;;;;;;;;23.00;34.50;;;;;;1607367;73;1942;-55
2021/03/08 03:22:23;;;;;;;;;;;23.00;34.40;;;;;;1600784;73;772;-55
2021/03/08 03:24:25;;;;;;;;;;;23.00;34.60;;;;;;1610131;73;772;-56
2021/03/08 03:26:29;;;;;;;;;;;23.00;34.40;;;;;;1617780;73;744;-60
2021/03/08 03:28:30;;;;;;;;;;;23.00;34.50;;;;;;1612452;73;701;-59
2021/03/08 03:30:32;;;;;;;;;;;23.00;34.40;;;;;;1614853;73;1148;-57
2021/03/08 03:32:34;;;;;;;;;;;23.00;34.50;;;;;;1616305;73;739;-57
2021/03/08 03:34:36;;;;;;;;;;;23.00;34.80;;;;;;1615814;73;906;-56
2021/03/08 03:36:38;;;;;;;;;;;23.00;35.00;;;;;;1605897;73;767;-60
2021/03/08 03:38:40;;;;;;;;;;;22.90;35.30;;;;;;1609359;73;772;-58
2021/03/08 03:40:42;;;;;;;;;;;22.70;35.50;;;;;;1624947;73;1961;-60
2021/03/08 03:42:44;;;;;;;;;;;22.70;35.70;;;;;;1618758;73;758;-57
2021/03/08 03:44:46;;;;;;;;;;;22.60;35.80;;;;;;1612723;73;778;-59
2021/03/08 03:46:48;;;;;;;;;;;22.60;35.70;;;;;;1604598;73;759;-60
2021/03/08 03:48:50;;;;;;;;;;;22.60;35.80;;;;;;1617079;73;716;-56
2021/03/08 03:50:51;;;;;;;;;;;22.70;36.30;;;;;;1612738;73;1111;-58
2021/03/08 03:52:53;;;;;;;;;;;22.70;36.20;;;;;;1624782;72;749;-58
2021/03/08 03:54:55;;;;;;;;;;;22.60;36.00;;;;;;1613838;73;729;-60
2021/03/08 03:56:58;;;;;;;;;;;22.70;36.20;;;;;;1622777;73;762;-57
2021/03/08 03:59:01;;;;;;;;;;;22.60;36.20;;;;;;1612285;73;802;-58
2021/03/08 04:01:05;;;;;;;;;;;22.60;36.20;;;;;;1616306;73;1919;-60
2021/03/08 04:03:07;;;;;;;;;;;22.70;36.20;;;;;;1614308;73;770;-60
2021/03/08 04:05:10;;;;;;;;;;;22.80;36.30;;;;;;1611055;73;708;-59
2021/03/08 04:07:11;;;;;;;;;;;22.80;36.20;;;;;;1606271;73;692;-55
2021/03/08 04:09:13;;;;;;;;;;;22.80;36.20;;;;;;1603199;73;1122;-58
2021/03/08 04:11:15;;;;;;;;;;;22.70;36.20;;;;;;1605710;73;710;-59
2021/03/08 04:13:17;;;;;;;;;;;22.80;36.20;;;;;;1602236;73;739;-59
2021/03/08 04:15:19;;;;;;;;;;;22.80;36.10;;;;;;1601067;73;688;-60
2021/03/08 04:17:21;;;;;;;;;;;22.80;36.20;;;;;;1610980;73;766;-55
2021/03/08 04:19:24;;;;;;;;;;;22.90;36.40;;;;;;1597974;73;1134;-58
2021/03/08 04:21:26;;;;;;;;;;;22.80;36.30;;;;;;1615211;73;1948;-57
2021/03/08 04:23:28;;;;;;;;;;;22.80;36.20;;;;;;1623992;73;734;-58
2021/03/08 04:25:31;;;;;;;;;;;22.80;36.20;;;;;;1611536;73;749;-60
2021/03/08 04:27:33;;;;;;;;;;;22.90;36.30;;;;;;1608860;73;720;-60
2021/03/08 04:29:38;;;;;;;;;;;22.80;36.30;;;;;;1611234;73;1165;-59
2021/03/08 04:31:40;;;;;;;;;;;22.80;36.30;;;;;;1608887;73;753;-56
2021/03/08 04:33:42;;;;;;;;;;;22.80;36.50;;;;;;1621255;73;777;-58
2021/03/08 04:35:45;;;;;;;;;;;22.80;36.30;;;;;;1606495;73;730;-60
2021/03/08 04:37:47;;;;;;;;;;;22.90;36.30;;;;;;1618716;73;714;-61
2021/03/08 04:39:51;;;;;;;;;;;22.90;36.30;;;;;;1609810;73;1926;-61
2021/03/08 04:41:52;;;;;;;;;;;22.90;36.30;;;;;;1610276;73;1678;-56
2021/03/08 04:43:55;;;;;;;;;;;22.90;36.20;;;;;;1607381;73;713;-60
2021/03/08 04:45:57;;;;;;;;;;;22.90;36.30;;;;;;1612916;73;779;-56
2021/03/08 04:47:59;;;;;;;;;;;22.90;36.40;;;;;;1596019;73;785;-58
2021/03/08 04:50:01;;;;;;;;;;;22.90;36.50;;;;;;1617387;73;1098;-58
2021/03/08 04:52:03;;;;;;;;;;;22.90;36.40;;;;;;1621136;73;787;-60
2021/03/08 04:54:05;;;;;;;;;;;23.00;36.40;;;;;;1620346;73;719;-60
2021/03/08 04:56:06;;;;;;;;;;;23.00;36.30;;;;;;1616047;73;743;-57
2021/03/08 04:58:08;;;;;;;;;;;23.00;36.00;;;;;;1540199;71;217174;-65
2021/03/08 05:00:10;;;;;;;;;;;23.00;36.10;;;;;;1537149;75;1965;-65
2021/03/08 05:02:12;;;;;;;;;;;22.90;35.90;;;;;;1541738;75;717;-65
2021/03/08 05:04:14;;;;;;;;;;;23.00;36.00;;;;;;1545826;76;696;-66
2021/03/08 05:06:16;;;;;;;;;;;23.00;36.10;;;;;;1531247;75;1207;-65
2021/03/08 05:08:18;;;;;;;;;;;23.00;36.10;;;;;;1521363;76;655;-66
2021/03/08 05:10:20;;;;;;;;;;;23.00;36.00;;;;;;1531148;76;641;-67
2021/03/08 05:12:22;;;;;;;;;;;23.00;36.30;;;;;;1518901;76;752;-64
2021/03/08 05:14:24;;;;;;;;;;;23.00;36.30;;;;;;1524364;76;748;-66
2021/03/08 05:16:26;;;;;;;;;;;23.10;36.50;;;;;;1515645;76;1130;-67
2021/03/08 05:18:27;;;;;;;;;;;23.00;36.30;;;;;;1515951;76;721;-68
2021/03/08 05:20:29;;;;;;;;;;;23.10;36.30;;;;;;1522736;77;1949;-67
2021/03/08 05:22:31;;;;;;;;;;;23.10;36.30;;;;;;1529447;76;784;-66
2021/03/08 05:24:33;;;;;;;;;;;23.10;36.20;;;;;;1530756;76;698;-65
2021/03/08 05:26:37;;;;;;;;;;;23.10;36.10;;;;;;1513879;76;1127;-68
2021/03/08 05:28:38;;;;;;;;;;;23.10;36.00;;;;;;1516222;76;959;-66
2021/03/08 05:30:40;;;;;;;;;;;23.10;36.00;;;;;;1537317;76;764;-67
2021/03/08 05:32:44;;;;;;;;;;;23.10;36.00;;;;;;1521813;76;787;-66
2021/03/08 05:34:46;;;;;;;;;;;23.10;36.00;;;;;;1511023;76;688;-67
2021/03/08 05:36:48;;;;;;;;;;;23.10;36.00;;;;;;1512932;76;1176;-67
2021/03/08 05:38:50;;;;;;;;;;;23.20;35.90;;;;;;1515156;76;734;-67
2021/03/08 05:40:57;;;;;;;;;;;23.10;36.00;;;;;;1518050;76;1962;-66
2021/03/08 05:43:03;;;;;;;;;;;23.20;36.00;;;;;;1522384;76;735;-66
2021/03/08 05:45:10;;;;;;;;;;;23.20;36.00;;;;;;1519840;76;721;-67
2021/03/08 05:47:16;;;;;;;;;;;23.10;36.00;;;;;;1527851;76;1671;-66
2021/03/08 05:49:20;;;;;;;;;;;23.20;36.00;;;;;;1536464;76;1882;-68
2021/03/08 05:51:26;;;;;;;;;;;23.10;35.90;;;;;;1515858;76;1538;-65
2021/03/08 05:53:33;;;;;;;;;;;23.20;36.00;;;;;;1521855;77;717;-65
2021/03/08 05:55:39;;;;;;;;;;;23.20;35.90;;;;;;1516795;76;1620;-68
2021/03/08 05:57:46;;;;;;;;;;;23.10;35.90;;;;;;1531481;76;1113;-67
2021/03/08 05:59:50;;;;;;;;;;;23.10;35.90;;;;;;1536669;76;774;-66
2021/03/08 06:01:59;;;;;;;;;;;23.20;35.70;;;;;;1525589;76;1925;-67
2021/03/08 06:04:03;;;;;;;;;;;23.10;35.70;;;;;;1510149;76;728;-66
2021/03/08 06:06:18;;;;;;;;;;;23.10;36.10;;;;;;1507091;76;726;-65
2021/03/08 06:08:44;;;;;;;;;;;23.20;36.10;;;;;;1506248;76;1864;-67
2021/03/08 06:10:47;;;;;;;;;;;23.20;36.00;;;;;;1506194;76;795;-66
2021/03/08 06:12:49;;;;;;;;;;;23.20;36.00;;;;;;1501680;77;1694;-65
2021/03/08 06:14:53;;;;;;;;;;;23.20;35.90;;;;;;1502037;77;731;-66
2021/03/08 06:16:55;;;;;;;;;;;23.10;36.00;;;;;;1502521;76;1146;-66
2021/03/08 06:18:57;;;;;;;;;;;23.20;35.80;;;;;;1508653;76;674;-66
2021/03/08 06:20:59;;;;;;;;;;;23.20;35.80;;;;;;1511381;76;1921;-67
2021/03/08 06:23:01;;;;;;;;;;;23.20;35.80;;;;;;1510072;76;687;-66
2021/03/08 06:25:04;;;;;;;;;;;23.30;35.70;;;;;;1518010;76;746;-69
2021/03/08 06:27:10;;;;;;;;;;;23.30;35.60;;;;;;1516559;76;1131;-66
2021/03/08 06:29:11;;;;;;;;;;;23.20;35.50;;;;;;1505234;77;687;-65
2021/03/08 06:31:14;;;;;;;;;;;23.20;35.50;;;;;;1500518;76;683;-67
2021/03/08 06:33:16;;;;;;;;;;;23.20;35.60;;;;;;1505143;76;688;-65
2021/03/08 06:35:18;;;;;;;;;;;23.20;35.50;;;;;;1510255;76;804;-65
2021/03/08 06:37:20;;;;;;;;;;;23.30;35.40;;;;;;1502037;76;1178;-65
2021/03/08 06:39:22;;;;;;;;;;;23.20;35.40;;;;;;1513688;76;746;-63
2021/03/08 06:41:24;;;;;;;;;;;23.30;35.40;;;;;;1502584;77;1944;-65
2021/03/08 06:43:26;;;;;;;;;;;23.40;35.70;;;;;;1508837;76;755;-66
2021/03/08 06:45:28;;;;;;;;;;;23.40;35.30;;;;;;1505102;76;789;-64
2021/03/08 06:47:30;;;;;;;;;;;23.40;34.90;;;;;;1508116;76;1170;-65
2021/03/08 06:49:32;;;;;;;;;;;23.40;34.70;;;;;;1513824;77;786;-65
2021/03/08 06:51:34;;;;;;;;;;;23.40;34.40;;;;;;1520528;76;825;-65
2021/03/08 06:53:36;;;;;;;;;;;23.30;34.50;;;;;;1519197;76;796;-65
2021/03/08 06:55:38;;;;;;;;;;;23.30;34.40;;;;;;1533142;76;693;-65
2021/03/08 06:57:42;;;;;;;;;;;23.40;34.00;;;;;;1517094;76;1154;-65
2021/03/08 06:59:48;;;;;;;;;;;23.30;34.00;;;;;;1512297;76;1611;-65
2021/03/08 07:01:52;;;;;;;;;;;23.40;33.70;;;;;;1514884;76;1940;-62
2021/03/08 07:03:54;;;;;;;;;;;23.30;33.30;;;;;;1509010;76;689;-65
2021/03/08 07:05:58;;;;;;;;;;;23.30;33.10;;;;;;1516752;76;747;-65
2021/03/08 07:08:00;;;;;;;;;;;23.20;32.90;;;;;;1512120;76;1802;-65
2021/03/08 07:10:02;;;;;;;;;;;23.20;32.80;;;;;;1515265;77;739;-65
2021/03/08 07:12:09;;;;;;;;;;;23.10;33.10;;;;;;1532412;76;751;-65
2021/03/08 07:14:24;;;;;;;;;;;23.20;32.80;;;;;;1518471;76;1022;-65
2021/03/08 07:16:25;;;;;;;;;;;23.10;32.60;;;;;;1507760;76;1167;-64
2021/03/08 07:18:27;;;;;;;;;;;23.10;33.10;;;;;;1515681;76;1661;-64
2021/03/08 07:20:29;;;;;;;;;;;23.10;32.60;;;;;;1518133;77;776;-66
2021/03/08 07:22:39;;;;;;;;;;;23.10;32.60;;;;;;1521839;76;1941;-65
2021/03/08 07:24:42;;;;;;;;;;;23.10;32.60;;;;;;1523543;76;736;-62
2021/03/08 07:26:51;;;;;;;;;;;23.20;32.30;;;;;;1524152;77;1750;-64
2021/03/08 07:29:11;;;;;;;;;;;23.20;32.10;;;;;;1516819;76;674;-66
2021/03/08 07:31:14;;;;;;;;;;;23.10;32.20;;;;;;1528127;76;792;-68
2021/03/08 07:33:16;;;;;;;;;;;23.10;32.00;;;;;;1520286;76;1627;-67
2021/03/08 07:35:20;;;;;;;;;;;23.10;30.30;;;;;;1522086;77;721;-67
2021/03/08 07:37:22;;;;;;;;;;;23.20;29.60;;;;;;1519253;76;1155;-66
2021/03/08 07:39:24;;;;;;;;;;;23.10;28.70;;;;;;1522013;76;710;-67
2021/03/08 07:41:25;;;;;;;;;;;23.10;28.30;;;;;;1488042;78;1942;-67
2021/03/08 07:43:27;;;;;;;;;;;23.10;28.50;;;;;;1502592;77;710;-69
2021/03/08 07:45:40;;;;;;;;;;;23.10;27.90;;;;;;1499919;77;775;-67
2021/03/08 07:47:42;;;;;;;;;;;23.10;27.70;;;;;;1507892;76;1166;-69
2021/03/08 07:49:43;;;;;;;;;;;23.10;27.30;;;;;;1500939;77;806;-67
2021/03/08 07:52:01;;;;;;;;;;;23.00;27.00;;;;;;1499263;77;794;-67
2021/03/08 07:54:03;;;;;;;;;;;23.00;26.70;;;;;;1507363;77;817;-67
2021/03/08 07:56:06;;;;;;;;;;;23.00;26.50;;;;;;1496489;77;736;-68
2021/03/08 07:58:08;;;;;;;;;;;23.00;26.10;;;;;;1507511;77;1084;-67
2021/03/08 08:00:10;;;;;;;;;;;22.90;26.00;;;;;;1499638;77;714;-67
2021/03/08 08:02:12;;;;;;;;;;;23.00;25.90;;;;;;1506187;77;1946;-67
2021/03/08 08:04:14;;;;;;;;;;;22.80;25.90;;;;;;1500172;77;792;-67
2021/03/08 08:06:20;;;;;;;;;;;22.80;25.50;;;;;;1501583;77;1277;-67
2021/03/08 08:08:22;;;;;;;;;;;22.80;25.70;;;;;;1507350;76;748;-69
2021/03/08 08:10:24;;;;;;;;;;;22.90;25.40;;;;;;1501917;77;1072;-67
2021/03/08 08:12:31;;;;;;;;;;;22.80;25.00;;;;;;1502387;77;750;-68
2021/03/08 08:14:30;;;;;;;;;;;22.80;24.80;;;;;;1503711;77;1671;-68
2021/03/08 08:16:33;;;;;;;;;;;22.80;24.70;;;;;;1487596;77;1146;-67
2021/03/08 08:18:36;;;;;;;;;;;22.80;24.70;;;;;;1492059;77;712;-68
2021/03/08 08:20:38;;;;;;;;;;;22.70;25.00;;;;;;1491659;77;1731;-67
2021/03/08 08:22:47;;;;;;;;;;;22.80;24.40;;;;;;1465902;78;1943;-68
2021/03/08 08:24:49;;;;;;;;;;;22.80;24.70;;;;;;1487087;77;1765;-67
2021/03/08 08:26:52;;;;;;;;;;;22.90;24.70;;;;;;1490910;77;1074;-67
2021/03/08 08:28:54;;;;;;;;;;;22.80;24.70;;;;;;1490213;77;780;-66
2021/03/08 08:30:59;;;;;;;;;;;22.80;24.50;;;;;;1502172;77;803;-67
2021/03/08 08:33:01;;;;;;;;;;;22.80;24.60;;;;;;1498416;77;753;-70
2021/03/08 08:35:04;;;;;;;;;;;22.80;24.50;;;;;;1494824;77;770;-68
2021/03/08 08:37:17;;;;;;;;;;;22.80;24.20;;;;;;1514869;77;1145;-68
2021/03/08 08:39:19;;;;;;;;;;;22.80;24.40;;;;;;1514178;77;955;-67
2021/03/08 08:41:30;;;;;;;;;;;22.80;24.40;;;;;;1508889;77;1954;-68
2021/03/08 08:43:32;;;;;;;;;;;22.80;24.20;;;;;;1490031;77;696;-68
2021/03/08 08:45:35;;;;;;;;;;;22.80;24.40;;;;;;1512862;77;796;-69
2021/03/08 08:47:37;;;;;;;;;;;22.80;24.40;;;;;;1502955;77;1214;-68
2021/03/08 08:49:39;;;;;;;;;;;22.80;24.20;;;;;;1495367;77;773;-67
2021/03/08 08:51:52;;;;;;;;;;;22.80;24.00;;;;;;1495145;77;730;-69
2021/03/08 08:53:54;;;;;;;;;;;22.80;23.60;;;;;;1511539;77;754;-69
2021/03/08 08:55:56;;;;;;;;;;;22.80;23.00;;;;;;1510479;77;726;-70
2021/03/08 08:58:16;;;;;;;;;;;22.70;22.90;;;;;;1494195;77;1111;-69
2021/03/08 09:00:22;;;;;;;;;;;22.80;22.30;;;;;;1488025;77;774;-69
2021/03/08 09:02:28;;;;;;;;;;;22.60;21.80;;;;;;1497467;77;1956;-68
2021/03/08 09:04:31;;;;;;;;;;;22.60;21.70;;;;;;1507602;77;1533;-68
2021/03/08 09:06:49;;;;;;;;;;;22.60;21.30;;;;;;1502850;77;1624;-67
2021/03/08 09:08:54;;;;;;;;;;;22.60;21.50;;;;;;1502119;77;863;-67
2021/03/08 09:10:57;;;;;;;;;;;22.50;21.50;;;;;;1495441;77;691;-68
2021/03/08 09:13:09;;;;;;;;;;;22.50;21.80;;;;;;1505151;77;780;-67
2021/03/08 09:15:17;;;;;;;;;;;22.50;21.50;;;;;;1498501;77;751;-70
2021/03/08 09:17:28;;;;;;;;;;;22.40;21.00;;;;;;1496313;77;1607;-69
2021/03/08 09:19:30;;;;;;;;;;;22.40;20.90;;;;;;1500935;77;1775;-67
2021/03/08 09:21:32;;;;;;;;;;;22.40;20.70;;;;;;1494074;77;1936;-67
2021/03/08 09:23:34;;;;;;;;;;;22.40;20.60;;;;;;1506218;77;664;-69
2021/03/08 09:25:37;;;;;;;;;;;22.40;20.90;;;;;;1513073;77;774;-69
2021/03/08 09:27:43;;;;;;;;;;;22.30;20.80;;;;;;1507658;77;1147;-68
2021/03/08 09:29:45;;;;;;;;;;;22.40;20.40;;;;;;1492804;77;843;-68
2021/03/08 09:31:46;;;;;;;;;;;22.30;20.80;;;;;;1502464;77;797;-68
2021/03/08 09:33:48;;;;;;;;;;;22.30;20.90;;;;;;1502437;77;769;-69
2021/03/08 09:35:50;;;;;;;;;;;22.30;20.60;;;;;;1509608;77;789;-69
2021/03/08 09:37:53;;;;;;;;;;;22.20;20.50;;;;;;1516514;77;1153;-69
2021/03/08 09:39:55;;;;;;;;;;;22.20;20.50;;;;;;1498098;77;786;-69
2021/03/08 09:41:57;;;;;;;;;;;22.00;20.50;;;;;;1491973;77;1947;-66
2021/03/08 09:43:59;;;;;;;;;;;22.00;20.50;;;;;;1499502;77;727;-68
2021/03/08 09:46:05;;;;;;;;;;;22.00;20.30;;;;;;1498404;77;824;-68
2021/03/08 09:48:07;;;;;;;;;;;22.00;20.40;;;;;;1497550;77;1908;-69
2021/03/08 09:50:09;;;;;;;;;;;22.00;20.30;;;;;;1500977;77;796;-69
2021/03/08 09:52:11;;;;;;;;;;;21.90;20.40;;;;;;1500128;77;804;-70
2021/03/08 09:54:13;;;;;;;;;;;21.90;20.40;;;;;;1500527;77;822;-68
2021/03/08 09:56:16;;;;;;;;;;;21.90;20.60;;;;;;1505436;77;1196;-69
2021/03/08 09:58:18;;;;;;;;;;;21.90;20.70;;;;;;1508360;77;658;-69
2021/03/08 10:00:21;;;;;;;;;;;21.90;20.50;;;;;;1512431;77;758;-68
2021/03/08 10:02:23;;;;;;;;;;;21.90;20.50;;;;;;1499522;77;1921;-67
2021/03/08 10:04:25;;;;;;;;;;;21.80;20.50;;;;;;1508673;77;726;-68
2021/03/08 10:06:27;;;;;;;;;;;21.80;20.70;;;;;;1505338;77;1096;-69
2021/03/08 10:08:30;;;;;;;;;;;21.90;20.80;;;;;;1502424;77;715;-69
2021/03/08 10:10:31;;;;;;;;;;;21.90;21.00;;;;;;1502502;77;737;-68
2021/03/08 10:12:33;;;;;;;;;;;21.80;20.90;;;;;;1501745;77;810;-68
2021/03/08 10:14:35;;;;;;;;;;;21.90;21.00;;;;;;1511474;77;794;-65
2021/03/08 10:16:37;;;;;;;;;;;21.80;20.70;;;;;;1500731;77;1177;-66
2021/03/08 10:18:39;;;;;;;;;;;21.80;20.70;;;;;;1505366;77;711;-69
2021/03/08 10:20:45;;;;;;;;;;;21.80;20.60;;;;;;1507666;77;923;-67
2021/03/08 10:22:47;;;;;;;;;;;21.80;20.70;;;;;;1506279;77;1908;-68
2021/03/08 10:24:50;;;;;;;;;;;21.80;20.90;;;;;;1516947;77;794;-68
2021/03/08 10:26:52;;;;;;;;;;;21.80;21.00;;;;;;1492814;77;1148;-67
2021/03/08 10:28:55;;;;;;;;;;;21.80;20.80;;;;;;1504604;77;671;-69
2021/03/08 10:30:57;;;;;;;;;;;21.70;20.90;;;;;;1500177;77;1051;-68
2021/03/08 10:33:06;;;;;;;;;;;21.80;20.90;;;;;;1497486;77;718;-68
2021/03/08 10:35:09;;;;;;;;;;;21.80;21.00;;;;;;1497255;77;789;-69
2021/03/08 10:37:11;;;;;;;;;;;21.80;21.20;;;;;;1505744;77;1120;-68
2021/03/08 10:39:12;;;;;;;;;;;21.60;21.20;;;;;;1506194;77;782;-68
2021/03/08 10:41:14;;;;;;;;;;;21.70;21.30;;;;;;1505151;77;794;-69
2021/03/08 10:43:16;;;;;;;;;;;21.70;21.80;;;;;;1505859;77;1945;-68
2021/03/08 10:45:18;;;;;;;;;;;21.70;22.00;;;;;;1482936;78;1203;-67
2021/03/08 10:47:20;;;;;;;;;;;21.70;21.60;;;;;;1511889;77;1143;-67
2021/03/08 10:49:22;;;;;;;;;;;21.70;21.90;;;;;;1518975;77;777;-66
2021/03/08 10:51:24;;;;;;;;;;;21.80;21.50;;;;;;1508110;77;745;-68
2021/03/08 10:53:26;;;;;;;;;;;21.70;21.70;;;;;;1502819;77;716;-68
2021/03/08 10:55:30;;;;;;;;;;;21.70;21.70;;;;;;1496481;77;681;-66
2021/03/08 10:57:32;;;;;;;;;;;21.70;21.40;;;;;;1518767;70;3124;-65
2021/03/08 10:59:34;;;;;;;;;;;21.60;21.00;;;;;;1546275;75;757;-64
2021/03/08 11:01:36;;;;;;;;;;;21.60;21.10;;;;;;1545637;75;751;-65
2021/03/08 11:03:39;;;;;;;;;;;21.70;21.30;;;;;;1544984;75;1939;-66
2021/03/08 11:05:41;;;;;;;;;;;21.60;20.90;;;;;;1547323;75;760;-64
2021/03/08 11:07:43;;;;;;;;;;;21.60;20.80;;;;;;1545744;75;1160;-64
2021/03/08 11:09:45;;;;;;;;;;;21.50;20.70;;;;;;1545041;75;823;-64
2021/03/08 11:11:47;;;;;;;;;;;21.50;20.70;;;;;;1546874;75;723;-65
2021/03/08 11:13:50;;;;;;;;;;;21.50;20.70;;;;;;1544651;75;709;-64
2021/03/08 11:15:52;;;;;;;;;;;21.40;20.50;;;;;;1549053;75;766;-66
2021/03/08 11:17:54;;;;;;;;;;;21.40;21.20;;;;;;1548557;75;1174;-66
2021/03/08 11:20:07;;;;;;;;;;;21.40;22.00;;;;;;1545633;75;776;-63
2021/03/08 11:22:09;;;;;;;;;;;21.40;22.40;;;;;;1547124;75;1925;-64
2021/03/08 11:24:20;;;;;;;;;;;21.50;22.60;;;;;;1546089;75;805;-65
2021/03/08 11:26:22;;;;;;;;;;;21.50;22.60;;;;;;1544230;75;735;-64
2021/03/08 11:28:26;;;;;;;;;;;21.60;22.70;;;;;;1544954;75;1093;-65
2021/03/08 11:30:28;;;;;;;;;;;21.60;22.80;;;;;;1541243;75;1894;-66
2021/03/08 11:32:30;;;;;;;;;;;21.70;22.90;;;;;;1541819;75;797;-68
2021/03/08 11:34:44;;;;;;;;;;;21.70;23.20;;;;;;1544829;75;750;-66
2021/03/08 11:36:47;;;;;;;;;;;21.70;23.60;;;;;;1547143;75;1139;-65
2021/03/08 11:38:49;;;;;;;;;;;21.70;23.90;;;;;;1547252;76;747;-65
2021/03/08 11:40:51;;;;;;;;;;;21.70;24.20;;;;;;1547117;77;763;-65
2021/03/08 11:42:53;;;;;;;;;;;21.80;24.50;;;;;;1546769;75;1939;-65
2021/03/08 11:44:55;;;;;;;;;;;21.80;24.70;;;;;;1544847;77;760;-65
2021/03/08 11:46:57;;;;;;;;;;;21.80;24.90;;;;;;1544526;75;1141;-64
2021/03/08 11:49:02;;;;;;;;;;;21.80;25.10;;;;;;1546882;75;759;-66
2021/03/08 11:51:04;;;;;;;;;;;21.90;25.40;;;;;;1546925;75;759;-65
2021/03/08 11:53:06;;;;;;;;;;;21.90;25.60;;;;;;1544348;75;750;-65
2021/03/08 11:55:08;;;;;;;;;;;21.90;25.70;;;;;;1535122;75;791;-65
2021/03/08 11:57:10;;;;;;;;;;;21.90;25.90;;;;;;1545700;75;1163;-68
2021/03/08 11:59:12;;;;;;;;;;;22.00;26.10;;;;;;1545199;75;749;-68
2021/03/08 12:01:15;;;;;;;;;;;21.90;26.10;;;;;;1546466;75;773;-66
2021/03/08 12:03:16;;;;;;;;;;;22.00;26.20;;;;;;1546925;75;1908;-66
2021/03/08 12:05:19;;;;;;;;;;;22.00;26.30;;;;;;1547327;75;724;-66
2021/03/08 12:07:20;;;;;;;;;;;22.00;26.30;;;;;;1544970;75;1168;-66
2021/03/08 12:09:22;;;;;;;;;;;22.00;26.40;;;;;;1545224;75;689;-64
2021/03/08 12:11:24;;;;;;;;;;;22.10;26.50;;;;;;1546733;75;693;-66
2021/03/08 12:13:26;;;;;;;;;;;22.20;26.50;;;;;;1546316;75;774;-68
2021/03/08 12:15:28;;;;;;;;;;;22.10;26.60;;;;;;1547058;75;785;-66